createdAt,value
2022-11-27T00:01:36.226Z,14.87
2022-11-27T00:04:04.508Z,13.47
2022-11-27T00:06:34.985Z,9.10
2022-11-27T00:09:05.619Z,10.40
2022-11-27T00:11:34.390Z,11.37
2022-11-27T00:14:03.205Z,11.50
2022-11-27T00:16:31.575Z,9.93
2022-11-27T00:19:00.120Z,8.30
2022-11-27T00:21:30.525Z,9.23
2022-11-27T00:24:02.067Z,11.60
2022-11-27T00:26:37.243Z,10.73
2022-11-27T00:29:06.624Z,6.63
2022-11-27T00:31:37.345Z,10.37
2022-11-27T00:34:09.105Z,6.37
2022-11-27T00:36:38.011Z,10.37
2022-11-27T00:39:10.619Z,8.03
2022-11-27T00:41:39.032Z,9.53
2022-11-27T00:44:07.433Z,10.53
2022-11-27T00:46:36.657Z,9.67
2022-11-27T00:49:07.059Z,11.77
2022-11-27T00:51:35.498Z,11.30
2022-11-27T00:54:03.780Z,10.43
2022-11-27T00:56:35.925Z,8.97
2022-11-27T00:59:05.709Z,5.70
2022-11-27T01:01:35.481Z,9.17
2022-11-27T01:04:05.252Z,9.83
2022-11-27T01:06:33.441Z,6.83
2022-11-27T01:09:02.250Z,12.07
2022-11-27T01:11:32.750Z,13.90
2022-11-27T01:14:04.407Z,8.73
2022-11-27T01:16:34.499Z,8.73
2022-11-27T01:19:04.361Z,9.03
2022-11-27T01:21:34.381Z,8.83
2022-11-27T01:24:03.529Z,7.23
2022-11-27T01:26:32.241Z,9.87
2022-11-27T01:29:02.292Z,9.93
2022-11-27T01:31:33.460Z,7.63
2022-11-27T01:34:03.219Z,8.90
2022-11-27T01:36:32.481Z,6.13
2022-11-27T01:39:01.014Z,6.17
2022-11-27T01:41:31.188Z,8.87
2022-11-27T01:44:01.360Z,8.07
2022-11-27T01:46:36.244Z,7.97
2022-11-27T01:49:23.421Z,9.13
2022-11-27T01:51:56.155Z,9.80
2022-11-27T01:54:27.247Z,8.97
2022-11-27T01:56:59.970Z,6.00
2022-11-27T01:59:28.273Z,6.63
2022-11-27T02:01:58.019Z,8.17
2022-11-27T02:04:26.331Z,7.37
2022-11-27T02:06:57.335Z,5.47
2022-11-27T02:09:25.771Z,11.70
2022-11-27T02:12:00.993Z,5.50
2022-11-27T02:14:37.346Z,6.43
2022-11-27T02:17:14.556Z,9.53
2022-11-27T02:20:03.921Z,10.00
2022-11-27T02:22:48.263Z,6.77
2022-11-27T02:25:29.922Z,8.50
2022-11-27T02:28:22.738Z,7.20
2022-11-27T02:30:58.094Z,9.20
2022-11-27T02:33:27.122Z,8.43
2022-11-27T02:36:01.036Z,6.50
2022-11-27T02:38:33.112Z,7.13
2022-11-27T02:41:06.578Z,7.83
2022-11-27T02:43:38.313Z,9.10
2022-11-27T02:46:10.853Z,9.07
2022-11-27T02:48:44.638Z,11.57
2022-11-27T02:51:16.187Z,6.23
2022-11-27T02:53:56.075Z,8.13
2022-11-27T02:56:27.668Z,7.07
2022-11-27T02:59:00.813Z,8.57
2022-11-27T03:01:34.814Z,7.90
2022-11-27T03:04:07.429Z,11.00
2022-11-27T03:06:41.596Z,9.57
2022-11-27T03:09:14.964Z,8.97
2022-11-27T03:11:43.243Z,8.47
2022-11-27T03:14:13.182Z,8.97
2022-11-27T03:16:50.495Z,11.93
2022-11-27T03:19:23.601Z,8.67
2022-11-27T03:21:55.230Z,9.73
2022-11-27T03:24:24.094Z,10.07
2022-11-27T03:26:52.583Z,8.93
2022-11-27T03:29:24.814Z,11.77
2022-11-27T03:31:54.450Z,8.83
2022-11-27T03:34:22.819Z,8.03
2022-11-27T03:36:51.210Z,11.10
2022-11-27T03:39:22.351Z,10.13
2022-11-27T03:42:02.415Z,10.67
2022-11-27T03:44:37.027Z,13.27
2022-11-27T03:47:13.584Z,12.20
2022-11-27T03:49:56.657Z,10.80
2022-11-27T03:52:32.507Z,12.03
2022-11-27T03:55:09.279Z,13.33
2022-11-27T03:57:45.374Z,10.07
2022-11-27T04:00:15.272Z,9.90
2022-11-27T04:02:47.322Z,13.50
2022-11-27T04:05:16.035Z,11.17
2022-11-27T04:07:44.235Z,11.77
2022-11-27T04:10:13.858Z,13.37
2022-11-27T04:12:41.838Z,8.83
2022-11-27T04:15:10.703Z,14.00
2022-11-27T04:17:38.716Z,11.67
2022-11-27T04:20:10.151Z,10.57
2022-11-27T04:22:38.127Z,12.50
2022-11-27T04:25:06.820Z,13.47
2022-11-27T04:27:34.766Z,11.53
2022-11-27T04:30:02.710Z,9.80
2022-11-27T04:32:30.821Z,14.20
2022-11-27T04:34:58.828Z,10.73
2022-11-27T04:37:28.443Z,14.33
2022-11-27T04:39:56.572Z,11.43
2022-11-27T04:42:24.589Z,12.90
2022-11-27T04:44:52.846Z,13.20
2022-11-27T04:47:20.889Z,11.63
2022-11-27T04:49:49.262Z,11.57
2022-11-27T04:52:17.264Z,15.00
2022-11-27T04:54:46.599Z,14.47
2022-11-27T04:57:15.091Z,14.90
2022-11-27T04:59:43.271Z,10.63
2022-11-27T05:02:11.321Z,12.00
2022-11-27T05:04:39.529Z,11.33
2022-11-27T05:07:08.279Z,15.30
2022-11-27T05:09:36.267Z,13.07
2022-11-27T05:12:06.260Z,12.10
2022-11-27T05:14:34.636Z,12.20
2022-11-27T05:17:03.022Z,12.90
2022-11-27T05:19:31.905Z,13.53
2022-11-27T05:22:00.011Z,14.60
2022-11-27T05:24:30.017Z,12.43
2022-11-27T05:26:58.327Z,15.23
2022-11-27T05:29:28.048Z,11.83
2022-11-27T05:31:56.467Z,15.87
2022-11-27T05:34:26.722Z,12.97
2022-11-27T05:36:55.048Z,12.90
2022-11-27T05:39:23.814Z,12.90
2022-11-27T05:41:51.829Z,12.53
2022-11-27T05:44:19.856Z,11.53
2022-11-27T05:46:49.210Z,11.27
2022-11-27T05:49:17.464Z,13.73
2022-11-27T05:51:50.999Z,9.90
2022-11-27T05:54:19.885Z,12.43
2022-11-27T05:56:47.840Z,11.10
2022-11-27T05:59:16.222Z,13.33
2022-11-27T06:01:44.528Z,10.47
2022-11-27T06:08:16.890Z,10.87
2022-11-27T06:10:44.884Z,13.63
2022-11-27T06:13:12.927Z,11.20
2022-11-27T06:15:41.016Z,12.90
2022-11-27T06:18:09.388Z,13.80
2022-11-27T06:20:43.386Z,15.07
2022-11-27T06:23:15.986Z,13.77
2022-11-27T06:25:44.080Z,10.00
2022-11-27T06:28:12.254Z,9.63
2022-11-27T06:30:40.359Z,12.40
2022-11-27T06:33:08.459Z,11.03
2022-11-27T06:35:39.730Z,13.00
2022-11-27T06:38:07.883Z,10.20
2022-11-27T06:40:37.528Z,9.57
2022-11-27T06:43:05.853Z,13.13
2022-11-27T06:45:34.181Z,10.10
2022-11-27T06:48:02.555Z,12.37
2022-11-27T06:50:30.643Z,12.03
2022-11-27T06:52:58.948Z,9.77
2022-11-27T06:55:28.806Z,9.80
2022-11-27T06:57:58.463Z,9.30
2022-11-27T07:00:26.612Z,15.40
2022-11-27T07:02:55.867Z,9.20
2022-11-27T07:05:25.631Z,11.77
2022-11-27T07:07:54.093Z,10.57
2022-11-27T07:10:22.689Z,9.90
2022-11-27T07:12:51.114Z,9.83
2022-11-27T07:15:20.737Z,12.77
2022-11-27T07:17:49.046Z,11.63
2022-11-27T07:20:20.767Z,7.63
2022-11-27T07:22:49.253Z,9.50
2022-11-27T07:25:17.762Z,7.60
2022-11-27T07:31:20.348Z,13.10
2022-11-27T07:33:49.892Z,11.93
2022-11-27T07:40:07.590Z,8.13
2022-11-27T07:43:21.752Z,10.80
2022-11-27T07:55:35.494Z,11.43
2022-11-27T07:58:06.942Z,11.73
2022-11-27T08:00:35.760Z,7.23
2022-11-27T08:03:03.954Z,8.73
2022-11-27T08:05:35.128Z,10.70
2022-11-27T08:08:04.458Z,11.43
2022-11-27T08:10:36.975Z,10.10
2022-11-27T08:13:05.478Z,8.73
2022-11-27T08:15:34.448Z,9.30
2022-11-27T08:18:02.605Z,6.93
2022-11-27T08:20:31.284Z,8.40
2022-11-27T08:23:02.977Z,7.20
2022-11-27T08:25:33.634Z,7.63
2022-11-27T08:28:02.037Z,8.07
2022-11-27T08:30:30.434Z,11.53
2022-11-27T08:32:58.742Z,16.47
2022-11-27T08:35:27.063Z,10.20
2022-11-27T08:37:55.384Z,8.10
2022-11-27T08:40:23.549Z,7.50
2022-11-27T08:42:53.123Z,7.30
2022-11-27T08:45:21.398Z,8.63
2022-11-27T08:47:49.679Z,8.07
2022-11-27T08:50:18.068Z,9.50
2022-11-27T08:52:46.205Z,5.97
2022-11-27T08:55:14.525Z,8.60
2022-11-27T08:57:42.625Z,8.87
2022-11-27T09:00:13.720Z,9.13
2022-11-27T09:02:41.875Z,6.47
2022-11-27T09:05:10.509Z,6.33
2022-11-27T09:07:38.703Z,6.40
2022-11-27T09:10:07.927Z,8.40
2022-11-27T09:12:40.521Z,8.00
2022-11-27T09:15:13.475Z,8.87
2022-11-27T09:17:41.588Z,6.17
2022-11-27T09:20:10.489Z,8.40
2022-11-27T09:22:38.815Z,4.40
2022-11-27T09:25:07.513Z,9.17
2022-11-27T09:27:39.172Z,7.30
2022-11-27T09:30:10.079Z,7.63
2022-11-27T09:32:40.275Z,8.13
2022-11-27T09:35:09.237Z,6.50
2022-11-27T09:37:37.741Z,7.53
2022-11-27T09:40:07.405Z,8.10
2022-11-27T09:42:43.849Z,11.20
2022-11-27T09:45:17.490Z,6.03
2022-11-27T09:47:52.711Z,8.13
2022-11-27T09:50:24.967Z,7.77
2022-11-27T09:52:56.432Z,5.50
2022-11-27T09:55:27.429Z,6.50
2022-11-27T09:58:00.715Z,8.10
2022-11-27T10:00:29.249Z,6.57
2022-11-27T10:02:58.845Z,8.70
2022-11-27T10:05:35.151Z,10.10
2022-11-27T10:08:24.450Z,9.57
2022-11-27T10:11:04.012Z,11.23
2022-11-27T10:13:58.326Z,6.60
2022-11-27T10:16:42.853Z,9.77
2022-11-27T10:19:28.454Z,8.60
2022-11-27T10:22:01.108Z,8.83
2022-11-27T10:24:37.148Z,6.40
2022-11-27T10:27:15.679Z,6.53
2022-11-27T10:29:50.280Z,7.87
2022-11-27T10:32:53.678Z,7.63
2022-11-27T10:35:17.347Z,7.03
2022-11-27T10:37:50.158Z,6.57
2022-11-27T10:40:24.818Z,7.87
2022-11-27T10:43:01.912Z,6.60
2022-11-27T10:45:40.373Z,7.10
2022-11-27T10:48:09.007Z,6.83
2022-11-27T10:50:38.573Z,8.20
2022-11-27T10:53:09.824Z,8.33
2022-11-27T10:55:55.660Z,5.90
2022-11-27T10:58:29.568Z,8.83
2022-11-27T11:01:06.906Z,7.17
2022-11-27T11:03:36.095Z,9.23
2022-11-27T11:06:23.954Z,7.37
2022-11-27T11:09:04.000Z,9.70
2022-11-27T11:11:32.455Z,8.00
2022-11-27T11:14:16.160Z,8.13
2022-11-27T11:16:45.741Z,6.90
2022-11-27T11:19:24.814Z,9.27
2022-11-27T11:21:54.591Z,8.03
2022-11-27T11:24:28.447Z,7.30
2022-11-27T11:27:00.252Z,8.73
2022-11-27T11:29:32.739Z,9.37
2022-11-27T11:32:09.540Z,9.63
2022-11-27T11:34:44.221Z,7.23
2022-11-27T11:37:28.947Z,7.37
2022-11-27T11:39:59.667Z,11.03
2022-11-27T11:42:29.604Z,9.27
2022-11-27T11:45:04.779Z,8.67
2022-11-27T11:47:33.338Z,6.77
2022-11-27T11:50:04.908Z,7.53
2022-11-27T11:52:50.054Z,6.87
2022-11-27T11:55:21.738Z,7.07
2022-11-27T11:58:21.515Z,6.70
2022-11-27T12:01:19.296Z,7.03
2022-11-27T12:03:53.652Z,8.80
2022-11-27T12:06:38.617Z,6.13
2022-11-27T12:09:27.510Z,6.03
2022-11-27T12:12:02.421Z,7.90
2022-11-27T12:14:42.506Z,8.73
2022-11-27T12:17:25.804Z,7.57
2022-11-27T12:20:08.006Z,7.27
2022-11-27T12:22:53.762Z,6.27
2022-11-27T12:25:33.631Z,5.87
2022-11-27T12:28:15.928Z,5.33
2022-11-27T12:30:53.129Z,6.50
2022-11-27T12:33:37.269Z,7.97
2022-11-27T12:36:17.109Z,7.40
2022-11-27T12:39:00.128Z,5.67
2022-11-27T12:41:46.033Z,4.67
2022-11-27T12:44:23.606Z,8.20
2022-11-27T12:46:59.995Z,7.23
2022-11-27T12:49:35.557Z,6.37
2022-11-27T12:52:12.763Z,6.30
2022-11-27T12:54:47.745Z,5.87
2022-11-27T12:57:28.097Z,5.97
2022-11-27T13:00:02.037Z,5.83
2022-11-27T13:02:36.316Z,6.70
2022-11-27T13:05:08.803Z,5.87
2022-11-27T13:07:44.824Z,6.90
2022-11-27T13:10:21.949Z,7.23
2022-11-27T13:13:01.055Z,5.83
2022-11-27T13:15:34.770Z,7.27
2022-11-27T13:18:16.588Z,8.53
2022-11-27T13:20:51.997Z,9.80
2022-11-27T13:23:21.401Z,7.27
2022-11-27T13:25:54.184Z,5.97
2022-11-27T13:28:35.031Z,4.83
2022-11-27T13:31:05.299Z,6.17
2022-11-27T13:33:39.092Z,5.70
2022-11-27T13:36:09.383Z,6.63
2022-11-27T13:38:42.093Z,4.47
2022-11-27T13:41:21.024Z,5.80
2022-11-27T13:43:52.779Z,7.40
2022-11-27T13:46:25.206Z,6.37
2022-11-27T13:48:57.647Z,7.33
2022-11-27T13:51:29.307Z,5.53
2022-11-27T13:54:09.226Z,9.00
2022-11-27T13:56:37.941Z,5.67
2022-11-27T13:59:22.968Z,5.60
2022-11-27T14:01:59.235Z,7.50
2022-11-27T14:04:28.546Z,8.40
2022-11-27T14:07:03.182Z,5.10
2022-11-27T14:09:37.969Z,7.50
2022-11-27T14:12:17.537Z,4.40
2022-11-27T14:15:00.168Z,7.50
2022-11-27T14:17:36.145Z,5.80
2022-11-27T14:20:20.163Z,6.83
2022-11-27T14:25:38.897Z,4.80
2022-11-27T14:28:15.982Z,6.47
2022-11-27T14:30:49.198Z,4.80
2022-11-27T14:33:20.633Z,7.20
2022-11-27T14:35:53.928Z,6.37
2022-11-27T14:38:22.764Z,7.97
2022-11-27T14:40:53.439Z,6.93
2022-11-27T14:43:29.245Z,6.83
2022-11-27T14:46:01.901Z,7.23
2022-11-27T14:48:44.802Z,5.63
2022-11-27T14:51:18.185Z,6.27
2022-11-27T14:53:47.977Z,6.47
2022-11-27T14:56:17.248Z,7.50
2022-11-27T14:58:51.322Z,5.00
2022-11-27T15:01:27.536Z,7.53
2022-11-27T15:04:00.095Z,7.93
2022-11-27T15:06:32.607Z,6.23
2022-11-27T15:09:29.649Z,11.13
2022-11-27T15:11:56.889Z,5.47
2022-11-27T15:14:26.926Z,5.33
2022-11-27T15:21:58.032Z,8.03
2022-11-27T15:25:20.405Z,6.37
2022-11-27T15:27:55.978Z,6.33
2022-11-27T15:30:24.715Z,4.90
2022-11-27T15:32:56.412Z,5.13
2022-11-27T15:35:28.819Z,8.03
2022-11-27T15:38:04.385Z,8.77
2022-11-27T15:40:36.109Z,8.03
2022-11-27T15:43:07.654Z,6.90
2022-11-27T15:45:37.573Z,4.57
2022-11-27T15:48:15.190Z,6.10
2022-11-27T15:50:48.317Z,6.33
2022-11-27T15:53:20.166Z,4.53
2022-11-27T15:55:48.414Z,5.23
2022-11-27T15:58:17.227Z,5.13
2022-11-27T16:00:45.423Z,4.60
2022-11-27T16:03:15.672Z,4.63
2022-11-27T16:05:43.939Z,6.10
2022-11-27T16:08:12.324Z,5.73
2022-11-27T16:10:44.334Z,4.80
2022-11-27T16:13:12.585Z,6.00
2022-11-27T16:15:40.851Z,6.67
2022-11-27T16:18:08.899Z,5.90
2022-11-27T16:20:38.488Z,6.23
2022-11-27T16:23:06.560Z,3.57
2022-11-27T16:25:34.794Z,4.63
2022-11-27T16:28:03.495Z,5.40
2022-11-27T16:30:31.704Z,5.03
2022-11-27T16:32:59.853Z,5.83
2022-11-27T16:35:28.156Z,4.63
2022-11-27T16:37:57.860Z,7.43
2022-11-27T16:40:27.386Z,6.23
2022-11-27T16:42:55.986Z,6.07
2022-11-27T16:45:24.575Z,6.60
2022-11-27T16:47:54.788Z,6.70
2022-11-27T16:51:16.631Z,6.87
2022-11-27T16:53:50.177Z,6.10
2022-11-27T16:56:23.858Z,5.87
2022-11-27T16:59:07.019Z,6.70
2022-11-27T17:01:36.457Z,4.13
2022-11-27T17:07:01.384Z,5.83
2022-11-27T17:09:31.409Z,5.10
2022-11-27T17:11:59.705Z,4.13
2022-11-27T17:14:53.453Z,4.03
2022-11-27T17:17:35.516Z,5.90
2022-11-27T17:20:09.746Z,5.07
2022-11-27T17:22:38.703Z,6.33
2022-11-27T17:25:11.214Z,6.33
2022-11-27T17:27:39.873Z,4.93
2022-11-27T17:30:10.557Z,5.63
2022-11-27T17:32:40.007Z,6.03
2022-11-27T17:35:08.733Z,6.00
2022-11-27T17:37:37.254Z,5.90
2022-11-27T17:40:06.175Z,4.73
2022-11-27T17:42:36.025Z,5.03
2022-11-27T17:45:04.458Z,6.23
2022-11-27T17:47:34.168Z,7.60
2022-11-27T17:50:02.874Z,4.30
2022-11-27T17:52:32.159Z,5.17
2022-11-27T17:55:00.289Z,5.47
2022-11-27T17:57:28.757Z,5.83
2022-11-27T17:59:59.264Z,4.67
2022-11-27T18:02:27.937Z,6.10
2022-11-27T18:04:56.157Z,5.73
2022-11-27T18:07:25.874Z,4.77
2022-11-27T18:09:54.485Z,4.37
2022-11-27T18:12:22.640Z,5.23
2022-11-27T18:14:55.422Z,5.73
2022-11-27T18:17:29.358Z,6.47
2022-11-27T18:19:59.190Z,5.27
2022-11-27T18:22:27.644Z,7.87
2022-11-27T18:24:57.645Z,6.80
2022-11-27T18:27:25.963Z,5.03
2022-11-27T18:29:54.459Z,6.53
2022-11-27T18:32:23.128Z,6.57
2022-11-27T18:34:56.481Z,5.90
2022-11-27T18:37:45.923Z,5.23
2022-11-27T18:40:14.820Z,4.23
2022-11-27T18:42:42.950Z,5.13
2022-11-27T18:45:32.923Z,8.87
2022-11-27T18:48:01.720Z,5.07
2022-11-27T18:50:31.433Z,6.40
2022-11-27T18:52:59.819Z,6.27
2022-11-27T18:55:28.736Z,4.90
2022-11-27T18:57:57.167Z,5.57
2022-11-27T19:00:26.036Z,4.87
2022-11-27T19:02:54.650Z,5.50
2022-11-27T19:05:23.440Z,5.23
2022-11-27T19:07:53.153Z,5.47
2022-11-27T19:10:21.520Z,5.70
2022-11-27T19:12:59.923Z,5.37
2022-11-27T19:15:28.439Z,5.93
2022-11-27T19:17:56.720Z,6.13
2022-11-27T19:20:24.836Z,4.43
2022-11-27T19:22:54.496Z,5.23
2022-11-27T19:25:22.945Z,6.33
2022-11-27T19:27:53.618Z,5.53
2022-11-27T19:30:22.007Z,6.37
2022-11-27T19:32:50.158Z,6.07
2022-11-27T19:35:24.459Z,4.80
2022-11-27T19:37:55.504Z,7.23
2022-11-27T19:40:24.548Z,5.77
2022-11-27T19:42:57.961Z,5.33
2022-11-27T19:45:28.966Z,5.93
2022-11-27T19:47:57.232Z,7.27
2022-11-27T19:53:23.914Z,6.20
2022-11-27T19:55:55.095Z,7.20
2022-11-27T19:58:34.022Z,5.40
2022-11-27T20:01:07.276Z,5.03
2022-11-27T20:03:35.613Z,4.30
2022-11-27T20:06:05.628Z,5.83
2022-11-27T20:08:35.572Z,5.30
2022-11-27T20:11:05.747Z,4.40
2022-11-27T20:13:34.495Z,6.30
2022-11-27T20:16:02.862Z,6.43
2022-11-27T20:18:31.050Z,5.77
2022-11-27T20:21:06.017Z,5.93
2022-11-27T20:23:35.654Z,5.83
2022-11-27T20:26:05.685Z,6.57
2022-11-27T20:28:34.109Z,5.33
2022-11-27T20:31:03.965Z,6.37
2022-11-27T20:33:33.534Z,6.37
2022-11-27T20:36:02.198Z,6.17
2022-11-27T20:38:30.354Z,6.20
2022-11-27T20:41:00.587Z,6.37
2022-11-27T20:43:29.037Z,7.30
2022-11-27T20:45:57.262Z,7.30
2022-11-27T20:48:25.467Z,6.17
2022-11-27T20:50:53.816Z,5.80
2022-11-27T20:53:22.190Z,5.33
2022-11-27T20:55:50.643Z,4.53
2022-11-27T20:58:21.513Z,6.13
2022-11-27T21:00:50.842Z,6.50
2022-11-27T21:03:19.562Z,7.00
2022-11-27T21:06:07.030Z,6.37
2022-11-27T21:08:38.182Z,6.10
2022-11-27T21:11:13.949Z,6.33
2022-11-27T21:13:44.206Z,7.50
2022-11-27T21:16:14.265Z,5.00
2022-11-27T21:18:45.216Z,6.33
2022-11-27T21:21:15.253Z,5.83
2022-11-27T21:23:45.646Z,7.20
2022-11-27T21:26:16.215Z,7.03
2022-11-27T21:28:46.585Z,6.17
2022-11-27T21:31:21.780Z,7.77
2022-11-27T21:33:56.760Z,6.57
2022-11-27T21:36:29.450Z,5.00
2022-11-27T21:39:00.736Z,6.07
2022-11-27T21:41:33.791Z,7.40
2022-11-27T21:44:04.511Z,7.03
2022-11-27T21:46:33.902Z,7.83
2022-11-27T21:49:06.061Z,5.83
2022-11-27T21:51:34.566Z,5.53
2022-11-27T21:54:07.824Z,5.57
2022-11-27T21:56:38.625Z,8.10
2022-11-27T21:59:10.248Z,6.77
2022-11-27T22:01:38.693Z,7.47
2022-11-27T22:04:07.365Z,6.57
2022-11-27T22:06:38.609Z,6.67
2022-11-27T22:09:11.868Z,5.80
2022-11-27T22:11:43.227Z,6.73
2022-11-27T22:14:13.425Z,9.43
2022-11-27T22:16:45.276Z,8.83
2022-11-27T22:19:15.321Z,7.60
2022-11-27T22:21:45.142Z,7.03
2022-11-27T22:24:18.910Z,7.43
2022-11-27T22:26:49.778Z,8.37
2022-11-27T22:29:20.060Z,7.60
2022-11-27T22:31:48.077Z,10.40
2022-11-27T22:34:21.872Z,8.53
2022-11-27T22:36:50.088Z,7.33
2022-11-27T22:39:18.420Z,9.50
2022-11-27T22:41:47.152Z,7.57
2022-11-27T22:44:18.711Z,9.67
2022-11-27T22:46:51.695Z,7.83
2022-11-27T22:49:20.186Z,7.77
2022-11-27T22:51:48.359Z,8.10
2022-11-27T22:54:18.008Z,7.83
2022-11-27T22:56:47.455Z,7.13
2022-11-27T22:59:33.734Z,8.43
2022-11-27T23:02:05.077Z,6.93
2022-11-27T23:04:33.601Z,7.10
2022-11-27T23:07:01.710Z,9.40
2022-11-27T23:09:30.145Z,8.50
2022-11-27T23:11:58.111Z,8.30
2022-11-27T23:14:27.024Z,8.87
2022-11-27T23:16:55.078Z,6.83
2022-11-27T23:19:24.729Z,7.97
2022-11-27T23:21:52.575Z,8.20
2022-11-27T23:24:20.900Z,7.43
2022-11-27T23:26:49.030Z,8.67
2022-11-27T23:29:16.856Z,6.73
2022-11-27T23:31:44.750Z,8.93
2022-11-27T23:34:15.984Z,13.17
2022-11-27T23:36:45.858Z,6.67
2022-11-27T23:39:14.897Z,10.43
2022-11-27T23:41:43.531Z,7.63
2022-11-27T23:44:11.736Z,7.83
2022-11-27T23:46:39.771Z,8.47
2022-11-27T23:49:08.284Z,7.53
2022-11-27T23:51:36.499Z,7.10
2022-11-27T23:54:08.408Z,8.60
2022-11-27T23:56:36.644Z,8.30
2022-11-27T23:59:05.331Z,7.27
